Apple Valley, MN (55124)

3:58 PM CST on February 06, 2016 (GMT -0600)
VMSS-SV | | Change Station
CLOSE
Current Station
Personal Weather Station
Location: Apple Valley, MN
Elevation: 968 ft
Nearby Weather Stations
Active Advisory: Winter Weather Advisory

Elev 968 ft 44.73 °N, 93.24 °W | Updated 2 seconds ago

Overcast
Overcast
33.8 °F
Feels Like 30 °F
N
3.7
Wind Variable Wind from SSE
Gusts 4.3 mph

Today
High -- | Low -- °F
--% Chance of Precip.
Yesterday
High -- | Low -- °F
Precip. -- in
Pressure 29.94 in
Visibility 10.0 miles
Clouds Clear
Windchill 30 °F
Dew Point 28 °F
Humidity 82%
Rainfall 0.00 in
Snow Depth Not available.
7:26 AM 5:27 PM
Waning Crescent, 4% visible
METAR KLVN 062136Z AUTO 18009G14KT 10SM CLR 00/M03 A2994 RMK AO2
Pressure 29.94 in
Visibility 10.0 miles
Clouds Clear
Windchill 30 °F
Dew Point 28 °F
Humidity 82%
Rainfall 0.00 in
Snow Depth Not available.
7:26 AM 5:27 PM
Waning Crescent, 4% visible
METAR KLVN 062136Z AUTO 18009G14KT 10SM CLR 00/M03 A2994 RMK AO2

10-Day Weather Forecast

Almanac

Astronomy

Feb. 06, 2016 Rise Set
Actual Time
Civil Twilight
Nautical Twilight
Astronomical Twilight
Moon
Length of Visible Light
Length of Day
Tomorrow will be .
, % of the Moon is Illuminated

Today's Extremes

State Highs State Lows

Community

WunderPhotos

Upload Photos

1,891,051 photos uploaded!

WunderBlog® & News

Nearby

Air Quality

  Air Quality AQ Index Pollutant
Not available.

Snow Depth

Station Depth Elevation

Earthquake Activity

City Distance Mag. Time & Date
Minimum magnitude displayed is 2.5.

Coastal Water Temperatures

Place Temperature

Stations

Nearby Weather Stations

Station Location Temp. Windchill Dew Point Humidity Wind Precip. Elev Updated Type
                   

Watches & Warnings

Winter Weather Advisory
Issued: 3:09 PM CST Feb. 6, 2016 – National Weather Service

... Winter Weather Advisory in effect from 3 PM Sunday to noon CST
Monday...

The National Weather Service in Twin Cities/Chanhassen has issued
a Winter Weather Advisory for snow and blowing snow which is in
effect from 3 PM Sunday to noon CST Monday.

* Expect snow to develop around 3 PM Sunday and then diminish
around noon Monday.

* Total snow accumulations of up to 2 inches are expected.

* Winds gusting as high as 45 mph will cause areas of blowing
and drifting snow.

* Plan on slippery Road conditions.

Precautionary/preparedness actions...

A Winter Weather Advisory for snow means periods of snow will
cause primarily travel difficulties. Be prepared for snow covered
roads and limited visibilities... and use caution while driving.
The latest Road conditions for the state you are calling from can
be obtained by calling 5 1 1.